createdAt,value
2018-04-22T00:00:58.696Z,0.00
2018-04-22T00:01:58.654Z,0.00
2018-04-22T00:02:58.615Z,0.00
2018-04-22T00:03:58.574Z,0.00
2018-04-22T00:04:58.525Z,0.00
2018-04-22T00:05:58.481Z,0.00
2018-04-22T00:06:58.437Z,0.00
2018-04-22T00:07:58.395Z,0.00
2018-04-22T00:08:58.349Z,0.00
2018-04-22T00:09:58.306Z,0.00
2018-04-22T00:10:58.262Z,0.00
2018-04-22T00:11:58.219Z,0.00
2018-04-22T00:12:58.176Z,0.00
2018-04-22T00:13:58.136Z,0.00
2018-04-22T00:14:58.092Z,0.00
2018-04-22T00:15:58.047Z,0.00
2018-04-22T00:16:58.007Z,0.00
2018-04-22T00:17:57.963Z,0.00
2018-04-22T00:18:57.918Z,0.00
2018-04-22T00:19:57.875Z,0.00
2018-04-22T00:20:57.835Z,0.00
2018-04-22T00:21:57.789Z,0.00
2018-04-22T00:22:57.743Z,0.00
2018-04-22T00:23:57.701Z,0.00
2018-04-22T00:24:57.658Z,0.00
2018-04-22T00:25:57.617Z,0.00
2018-04-22T00:26:57.566Z,0.00
2018-04-22T00:27:57.524Z,0.00
2018-04-22T00:28:57.483Z,0.00
2018-04-22T00:29:57.437Z,0.00
2018-04-22T00:30:57.392Z,0.00
2018-04-22T00:31:57.351Z,0.00
2018-04-22T00:32:57.305Z,0.00
2018-04-22T00:33:57.265Z,0.00
2018-04-22T00:34:57.218Z,0.00
2018-04-22T00:35:57.176Z,0.00
2018-04-22T00:36:57.131Z,0.00
2018-04-22T00:37:57.088Z,0.00
2018-04-22T00:38:57.041Z,0.00
2018-04-22T00:39:57.000Z,0.00
2018-04-22T00:40:56.955Z,0.00
2018-04-22T00:41:56.912Z,0.00
2018-04-22T00:42:56.867Z,0.00
2018-04-22T00:43:56.829Z,0.00
2018-04-22T00:44:56.780Z,0.00
2018-04-22T00:45:56.738Z,0.00
2018-04-22T00:46:56.693Z,0.00
2018-04-22T00:47:56.649Z,0.00
2018-04-22T00:48:56.607Z,0.00
2018-04-22T00:49:56.563Z,0.00
2018-04-22T00:50:56.522Z,0.00
2018-04-22T00:51:56.475Z,0.00
2018-04-22T00:52:56.431Z,0.00
2018-04-22T00:53:56.389Z,0.00
2018-04-22T00:54:56.345Z,0.00
2018-04-22T00:55:56.298Z,0.00
2018-04-22T00:56:56.255Z,0.00
2018-04-22T00:57:56.212Z,0.00
2018-04-22T00:58:56.167Z,0.00
2018-04-22T00:59:56.124Z,0.00
2018-04-22T01:00:56.079Z,0.00
2018-04-22T01:01:56.042Z,0.00
2018-04-22T01:02:55.993Z,0.00
2018-04-22T01:03:55.947Z,0.00
2018-04-22T01:04:55.903Z,0.00
2018-04-22T01:05:55.862Z,0.00
2018-04-22T01:06:55.816Z,0.00
2018-04-22T01:07:55.772Z,0.00
2018-04-22T01:08:55.730Z,0.00
2018-04-22T01:09:55.686Z,0.00
2018-04-22T01:10:55.639Z,0.00
2018-04-22T01:11:55.599Z,0.00
2018-04-22T01:12:55.555Z,0.00
2018-04-22T01:13:55.510Z,0.00
2018-04-22T01:14:55.466Z,0.00
2018-04-22T01:15:55.421Z,0.00
2018-04-22T01:16:55.378Z,0.00
2018-04-22T01:17:55.334Z,0.00
2018-04-22T01:18:55.289Z,0.00
2018-04-22T01:19:55.247Z,0.00
2018-04-22T01:20:55.201Z,0.00
2018-04-22T01:21:55.161Z,0.00
2018-04-22T01:22:55.112Z,0.00
2018-04-22T01:23:55.070Z,0.00
2018-04-22T01:24:55.030Z,0.00
2018-04-22T01:25:54.984Z,0.00
2018-04-22T01:26:54.940Z,0.00
2018-04-22T01:27:54.897Z,0.00
2018-04-22T01:28:54.853Z,0.00
2018-04-22T01:29:54.808Z,0.00
2018-04-22T01:30:54.774Z,0.00
2018-04-22T01:31:54.758Z,0.00
2018-04-22T01:32:54.676Z,0.00
2018-04-22T01:33:54.633Z,0.00
2018-04-22T01:34:54.588Z,0.00
2018-04-22T01:35:54.544Z,0.00
2018-04-22T01:36:54.499Z,0.00
2018-04-22T01:37:54.457Z,0.00
2018-04-22T01:38:54.411Z,0.00
2018-04-22T01:39:54.371Z,0.00
2018-04-22T01:40:54.320Z,0.00
2018-04-22T01:41:54.280Z,0.00
2018-04-22T01:42:54.235Z,0.00
2018-04-22T01:43:54.193Z,0.00
2018-04-22T01:44:54.148Z,0.00
2018-04-22T01:45:54.103Z,0.00
2018-04-22T01:46:54.060Z,0.00
2018-04-22T01:47:54.016Z,0.00
2018-04-22T01:48:53.970Z,0.00
2018-04-22T01:49:53.928Z,0.00
2018-04-22T01:50:53.890Z,0.00
2018-04-22T01:51:53.840Z,0.00
2018-04-22T01:52:54.540Z,0.00
2018-04-22T01:53:53.750Z,0.00
2018-04-22T01:54:53.706Z,0.00
2018-04-22T01:55:54.537Z,0.00
2018-04-22T01:56:53.618Z,0.00
2018-04-22T01:57:53.572Z,0.00
2018-04-22T01:58:53.527Z,0.00
2018-04-22T01:59:53.489Z,0.00
2018-04-22T02:00:53.437Z,0.00
2018-04-22T02:01:53.396Z,0.00
2018-04-22T02:02:53.351Z,0.00
2018-04-22T02:03:53.307Z,0.00
2018-04-22T02:04:53.267Z,0.00
2018-04-22T02:05:53.218Z,0.00
2018-04-22T02:06:53.171Z,0.00
2018-04-22T02:07:54.039Z,0.00
2018-04-22T02:08:53.087Z,0.00
2018-04-22T02:09:53.040Z,0.00
2018-04-22T02:10:53.537Z,0.00
2018-04-22T02:11:52.952Z,0.00
2018-04-22T02:12:52.908Z,0.00
2018-04-22T02:13:52.865Z,0.00
2018-04-22T02:14:52.817Z,0.00
2018-04-22T02:15:54.040Z,0.00
2018-04-22T02:16:53.541Z,0.00
2018-04-22T02:17:53.539Z,0.00
2018-04-22T02:18:52.641Z,0.00
2018-04-22T02:19:52.620Z,0.00
2018-04-22T02:20:53.039Z,0.00
2018-04-22T02:21:52.511Z,0.00
2018-04-22T02:22:53.040Z,0.00
2018-04-22T02:23:52.421Z,0.00
2018-04-22T02:24:52.375Z,0.00
2018-04-22T02:25:52.332Z,0.00
2018-04-22T02:26:52.285Z,0.00
2018-04-22T02:27:52.241Z,0.00
2018-04-22T02:28:52.198Z,0.00
2018-04-22T02:29:52.152Z,0.00
2018-04-22T02:30:52.108Z,0.00
2018-04-22T02:31:52.068Z,0.00
2018-04-22T02:32:52.018Z,0.00
2018-04-22T02:33:51.978Z,0.00
2018-04-22T02:34:51.932Z,0.00
2018-04-22T02:35:51.886Z,0.00
2018-04-22T02:36:51.838Z,0.00
2018-04-22T02:37:51.796Z,0.00
2018-04-22T02:38:51.746Z,0.00
2018-04-22T02:39:51.704Z,0.00
2018-04-22T02:40:51.662Z,0.00
2018-04-22T02:41:51.616Z,0.00
2018-04-22T02:42:55.043Z,0.00
2018-04-22T02:43:51.530Z,0.00
2018-04-22T02:44:51.483Z,0.00
2018-04-22T02:45:52.047Z,0.00
2018-04-22T02:46:51.396Z,0.00
2018-04-22T02:47:51.351Z,0.00
2018-04-22T02:48:51.306Z,0.00
2018-04-22T02:49:51.264Z,0.00
2018-04-22T02:50:51.212Z,0.00
2018-04-22T02:51:51.172Z,0.00
2018-04-22T02:52:51.125Z,0.00
2018-04-22T02:53:52.046Z,0.00
2018-04-22T02:54:51.035Z,0.00
2018-04-22T02:55:50.999Z,0.00
2018-04-22T02:56:50.945Z,0.00
2018-04-22T02:57:51.548Z,0.00
2018-04-22T02:58:50.858Z,0.00
2018-04-22T02:59:51.548Z,0.00
2018-04-22T03:00:51.547Z,0.00
2018-04-22T03:01:50.728Z,0.00
2018-04-22T03:02:50.681Z,0.00
2018-04-22T03:03:50.635Z,0.00
2018-04-22T03:04:50.590Z,0.00
2018-04-22T03:05:50.540Z,0.00
2018-04-22T03:06:51.050Z,0.00
2018-04-22T03:07:50.457Z,0.00
2018-04-22T03:08:51.049Z,0.00
2018-04-22T03:09:51.047Z,0.00
2018-04-22T03:10:50.326Z,0.00
2018-04-22T03:11:50.280Z,0.00
2018-04-22T03:12:50.230Z,0.00
2018-04-22T03:13:51.049Z,0.00
2018-04-22T03:14:50.142Z,0.00
2018-04-22T03:15:51.049Z,0.00
2018-04-22T03:16:50.054Z,0.00
2018-04-22T03:17:50.013Z,0.00
2018-04-22T03:18:49.964Z,0.00
2018-04-22T03:19:49.917Z,0.00
2018-04-22T03:20:50.550Z,0.00
2018-04-22T03:21:49.841Z,0.00
2018-04-22T03:22:49.782Z,0.00
2018-04-22T03:23:49.744Z,0.00
2018-04-22T03:24:49.695Z,0.00
2018-04-22T03:25:49.655Z,0.00
2018-04-22T03:26:49.605Z,0.00
2018-04-22T03:27:49.560Z,0.00
2018-04-22T03:28:49.517Z,0.00
2018-04-22T03:29:49.473Z,0.00
2018-04-22T03:30:49.424Z,0.00
2018-04-22T03:31:49.379Z,0.00
2018-04-22T03:32:49.336Z,0.00
2018-04-22T03:33:49.291Z,0.00
2018-04-22T03:34:50.054Z,0.00
2018-04-22T03:35:49.200Z,0.00
2018-04-22T03:36:49.159Z,0.00
2018-04-22T03:37:50.062Z,0.00
2018-04-22T03:38:49.064Z,0.00
2018-04-22T03:39:49.021Z,0.00
2018-04-22T03:40:48.977Z,0.00
2018-04-22T03:41:48.937Z,0.00
2018-04-22T03:42:48.888Z,0.00
2018-04-22T03:43:48.843Z,4.00
2018-04-22T03:44:48.887Z,4.00
2018-04-22T03:45:48.754Z,0.00
2018-04-22T03:46:48.711Z,4.00
2018-04-22T03:47:48.664Z,4.00
2018-04-22T03:48:48.618Z,4.00
2018-04-22T03:49:49.560Z,4.00
2018-04-22T03:50:48.528Z,4.00
2018-04-22T03:51:48.485Z,4.00
2018-04-22T03:52:48.438Z,8.00
2018-04-22T03:53:48.396Z,12.00
2018-04-22T03:54:48.348Z,12.00
2018-04-22T03:55:48.306Z,12.00
2018-04-22T03:56:49.060Z,16.00
2018-04-22T03:57:48.222Z,20.00
2018-04-22T03:58:48.175Z,20.00
2018-04-22T03:59:48.129Z,24.00
2018-04-22T04:00:48.075Z,28.00
2018-04-22T04:01:48.035Z,32.00
2018-04-22T04:02:47.989Z,40.00
2018-04-22T04:03:48.561Z,44.00
2018-04-22T04:04:47.897Z,48.00
2018-04-22T04:05:47.856Z,60.00
2018-04-22T04:06:47.810Z,64.00
2018-04-22T04:07:47.763Z,76.00
2018-04-22T04:08:47.722Z,84.00
2018-04-22T04:09:47.680Z,92.00
2018-04-22T04:10:47.628Z,108.00
2018-04-22T04:11:47.586Z,120.00
2018-04-22T04:12:47.544Z,136.00
2018-04-22T04:13:47.494Z,144.00
2018-04-22T04:14:47.448Z,160.00
2018-04-22T04:15:48.061Z,176.00
2018-04-22T04:16:47.360Z,196.00
2018-04-22T04:17:47.321Z,212.00
2018-04-22T04:18:47.270Z,236.00
2018-04-22T04:19:47.220Z,252.00
2018-04-22T04:20:47.178Z,272.00
2018-04-22T04:21:47.141Z,296.00
2018-04-22T04:22:47.089Z,316.00
2018-04-22T04:23:47.569Z,344.00
2018-04-22T04:24:47.008Z,364.00
2018-04-22T04:25:46.954Z,384.00
2018-04-22T04:26:46.907Z,412.00
2018-04-22T04:27:47.564Z,440.00
2018-04-22T04:28:46.823Z,472.00
2018-04-22T04:29:46.774Z,508.00
2018-04-22T04:30:46.773Z,540.00
2018-04-22T04:31:46.686Z,568.00
2018-04-22T04:32:47.572Z,596.00
2018-04-22T04:33:46.595Z,624.00
2018-04-22T04:34:46.546Z,652.00
2018-04-22T04:35:46.504Z,688.00
2018-04-22T04:36:46.457Z,724.00
2018-04-22T04:37:46.414Z,760.00
2018-04-22T04:38:46.370Z,796.00
2018-04-22T04:39:46.321Z,836.00
2018-04-22T04:40:46.276Z,876.00
2018-04-22T04:41:46.231Z,912.00
2018-04-22T04:42:46.189Z,948.00
2018-04-22T04:43:46.143Z,984.00
2018-04-22T04:44:46.101Z,1016.00
2018-04-22T04:45:46.052Z,1052.00
2018-04-22T04:46:46.571Z,1080.00
2018-04-22T04:47:46.574Z,1116.00
2018-04-22T04:48:46.575Z,1144.00
2018-04-22T04:49:45.874Z,1172.00
2018-04-22T04:50:45.827Z,1204.00
2018-04-22T04:51:45.783Z,1236.00
2018-04-22T04:52:45.739Z,1268.00
2018-04-22T04:53:46.574Z,1308.00
2018-04-22T04:54:47.072Z,1344.00
2018-04-22T04:55:45.603Z,1380.00
2018-04-22T04:56:45.559Z,1420.00
2018-04-22T04:57:45.515Z,1456.00
2018-04-22T04:58:46.071Z,1488.00
2018-04-22T04:59:45.429Z,1532.00
2018-04-22T05:00:45.380Z,1568.00
2018-04-22T05:01:45.335Z,1608.00
2018-04-22T05:02:45.287Z,1648.00
2018-04-22T05:03:46.075Z,1696.00
2018-04-22T05:04:45.200Z,1748.00
2018-04-22T05:05:45.156Z,1804.00
2018-04-22T05:06:45.112Z,1864.00
2018-04-22T05:07:45.065Z,1928.00
2018-04-22T05:08:45.028Z,2000.00
2018-04-22T05:09:44.983Z,2080.00
2018-04-22T05:10:44.930Z,2172.00
2018-04-22T05:11:44.887Z,2272.00
2018-04-22T05:12:44.843Z,2296.00
2018-04-22T05:13:44.798Z,2248.00
2018-04-22T05:14:44.751Z,2408.00
2018-04-22T05:15:45.578Z,2552.00
2018-04-22T05:16:45.575Z,2596.00
2018-04-22T05:17:44.619Z,2648.00
2018-04-22T05:18:44.604Z,2596.00
2018-04-22T05:19:44.529Z,2708.00
2018-04-22T05:20:45.077Z,2760.00
2018-04-22T05:21:44.439Z,2852.00
2018-04-22T05:22:44.396Z,2896.00
2018-04-22T05:23:44.351Z,2936.00
2018-04-22T05:24:44.310Z,2976.00
2018-04-22T05:25:45.078Z,2980.00
2018-04-22T05:26:45.079Z,2972.00
2018-04-22T05:27:45.078Z,2980.00
2018-04-22T05:28:44.131Z,3060.00
2018-04-22T05:29:44.091Z,3112.00
2018-04-22T05:30:44.044Z,3172.00
2018-04-22T05:31:44.001Z,3224.00
2018-04-22T05:32:43.962Z,3280.00
2018-04-22T05:33:43.913Z,3304.00
2018-04-22T05:34:43.870Z,3328.00
2018-04-22T05:35:44.582Z,3348.00
2018-04-22T05:36:43.785Z,3424.00
2018-04-22T05:37:43.738Z,3492.00
2018-04-22T05:38:43.694Z,3544.00
2018-04-22T05:39:43.652Z,3552.00
2018-04-22T05:40:43.606Z,3596.00
2018-04-22T05:41:43.580Z,3620.00
2018-04-22T05:42:43.563Z,3660.00
2018-04-22T05:43:43.479Z,3716.00
2018-04-22T05:44:43.432Z,3752.00
2018-04-22T05:45:43.393Z,3744.00
2018-04-22T05:46:43.347Z,3760.00
2018-04-22T05:47:43.304Z,3696.00
2018-04-22T05:48:43.262Z,3756.00
2018-04-22T05:49:43.215Z,3888.00
2018-04-22T05:50:43.170Z,3816.00
2018-04-22T05:51:43.657Z,3472.00
2018-04-22T05:52:43.084Z,3608.00
2018-04-22T05:53:43.041Z,3748.00
2018-04-22T05:54:42.996Z,4116.00
2018-04-22T05:55:42.959Z,4104.00
2018-04-22T05:56:42.916Z,4160.00
2018-04-22T05:57:42.867Z,4176.00
2018-04-22T05:58:42.827Z,4188.00
2018-04-22T05:59:42.777Z,4196.00
2018-04-22T06:00:42.736Z,4144.00
2018-04-22T06:01:42.693Z,4184.00
2018-04-22T06:02:42.660Z,3996.00
2018-04-22T06:03:42.605Z,3912.00
2018-04-22T06:04:42.563Z,3292.00
2018-04-22T06:05:43.095Z,3316.00
2018-04-22T06:06:42.477Z,3356.00
2018-04-22T06:07:42.435Z,4192.00
2018-04-22T06:08:42.392Z,4244.00
2018-04-22T06:09:42.352Z,4372.00
2018-04-22T06:10:42.304Z,3564.00
2018-04-22T06:11:43.089Z,3540.00
2018-04-22T06:12:42.217Z,4128.00
2018-04-22T06:13:43.163Z,4632.00
2018-04-22T06:14:42.130Z,4828.00
2018-04-22T06:15:42.093Z,4868.00
2018-04-22T06:16:42.592Z,4648.00
2018-04-22T06:17:42.004Z,5056.00
2018-04-22T06:18:41.959Z,5188.00
2018-04-22T06:19:41.920Z,5224.00
2018-04-22T06:20:42.590Z,5252.00
2018-04-22T06:21:41.830Z,5452.00
2018-04-22T06:22:42.600Z,5560.00
2018-04-22T06:23:41.744Z,5652.00
2018-04-22T06:24:41.710Z,5752.00
2018-04-22T06:25:41.777Z,5820.00
2018-04-22T06:26:42.172Z,5852.00
2018-04-22T06:27:41.579Z,5880.00
2018-04-22T06:28:41.530Z,5900.00
2018-04-22T06:29:41.487Z,5896.00
2018-04-22T06:30:41.444Z,5900.00
2018-04-22T06:31:41.403Z,5896.00
2018-04-22T06:32:42.092Z,5888.00
2018-04-22T06:33:41.316Z,5924.00
2018-04-22T06:34:41.274Z,5936.00
2018-04-22T06:35:41.229Z,5992.00
2018-04-22T06:36:41.238Z,6068.00
2018-04-22T06:37:42.097Z,6124.00
2018-04-22T06:38:41.665Z,6244.00
2018-04-22T06:39:41.073Z,6340.00
2018-04-22T06:40:41.019Z,6460.00
2018-04-22T06:41:41.599Z,6592.00
2018-04-22T06:42:41.600Z,6704.00
2018-04-22T06:43:40.893Z,6772.00
2018-04-22T06:44:41.597Z,6840.00
2018-04-22T06:45:40.815Z,6916.00
2018-04-22T06:46:41.602Z,6888.00
2018-04-22T06:47:41.605Z,6276.00
2018-04-22T06:48:40.683Z,5380.00
2018-04-22T06:49:40.643Z,6608.00
2018-04-22T06:50:40.597Z,7208.00
2018-04-22T06:51:40.556Z,7196.00
2018-04-22T06:52:41.107Z,7080.00
2018-04-22T06:53:40.474Z,6500.00
2018-04-22T06:54:40.432Z,5920.00
2018-04-22T06:55:40.393Z,5984.00
2018-04-22T06:56:40.353Z,5708.00
2018-04-22T06:57:41.101Z,5312.00
2018-04-22T06:58:40.264Z,5216.00
2018-04-22T06:59:40.223Z,5764.00
2018-04-22T07:00:40.182Z,5112.00
2018-04-22T07:01:40.141Z,6432.00
2018-04-22T07:02:40.102Z,6704.00
2018-04-22T07:03:40.060Z,6292.00
2018-04-22T07:04:40.017Z,5516.00
2018-04-22T07:05:39.975Z,6464.00
2018-04-22T07:06:39.934Z,5872.00
2018-04-22T07:07:39.897Z,6128.00
2018-04-22T07:08:39.852Z,4796.00
2018-04-22T07:09:39.812Z,4492.00
2018-04-22T07:10:39.770Z,4424.00
2018-04-22T07:11:39.732Z,6672.00
2018-04-22T07:12:39.683Z,6632.00
2018-04-22T07:13:39.649Z,6664.00
2018-04-22T07:14:39.604Z,6368.00
2018-04-22T07:15:39.568Z,6616.00
2018-04-22T07:16:39.542Z,6744.00
2018-04-22T07:17:39.486Z,6744.00
2018-04-22T07:18:39.444Z,6704.00
2018-04-22T07:19:39.401Z,6708.00
2018-04-22T07:20:39.360Z,6700.00
2018-04-22T07:21:39.318Z,6716.00
2018-04-22T07:22:40.109Z,6716.00
2018-04-22T07:23:39.237Z,6720.00
2018-04-22T07:24:39.196Z,6740.00
2018-04-22T07:25:39.156Z,6728.00
2018-04-22T07:26:39.114Z,6736.00
2018-04-22T07:27:39.075Z,6736.00
2018-04-22T07:28:39.608Z,6764.00
2018-04-22T07:29:38.994Z,6828.00
2018-04-22T07:30:39.679Z,6832.00
2018-04-22T07:31:38.910Z,6824.00
2018-04-22T07:32:38.871Z,6784.00
2018-04-22T07:33:38.831Z,6788.00
2018-04-22T07:34:40.615Z,6820.00
2018-04-22T07:35:38.755Z,6836.00
2018-04-22T07:36:38.707Z,6844.00
2018-04-22T07:37:38.670Z,6928.00
2018-04-22T07:38:38.626Z,6952.00
2018-04-22T07:39:38.591Z,6988.00
2018-04-22T07:40:38.559Z,7016.00
2018-04-22T07:41:38.512Z,7052.00
2018-04-22T07:42:38.464Z,7044.00
2018-04-22T07:43:38.426Z,7048.00
2018-04-22T07:44:38.385Z,7044.00
2018-04-22T07:45:38.341Z,7028.00
2018-04-22T07:46:38.308Z,7028.00
2018-04-22T07:47:38.263Z,7116.00
2018-04-22T07:48:38.224Z,7200.00
2018-04-22T07:49:38.182Z,7216.00
2018-04-22T07:50:38.142Z,7212.00
2018-04-22T07:51:38.104Z,7220.00
2018-04-22T07:52:38.060Z,7248.00
2018-04-22T07:53:38.026Z,7196.00
2018-04-22T07:54:37.984Z,7236.00
2018-04-22T07:55:37.942Z,7240.00
2018-04-22T07:56:38.620Z,7216.00
2018-04-22T07:57:38.616Z,7200.00
2018-04-22T07:58:37.821Z,7200.00
2018-04-22T07:59:37.784Z,7268.00
2018-04-22T08:00:37.742Z,7272.00
2018-04-22T08:01:37.702Z,7304.00
2018-04-22T08:02:37.668Z,7280.00
2018-04-22T08:03:37.621Z,7336.00
2018-04-22T08:04:38.121Z,7284.00
2018-04-22T08:05:38.117Z,7316.00
2018-04-22T08:06:37.501Z,7328.00
2018-04-22T08:07:37.463Z,7344.00
2018-04-22T08:08:38.121Z,7376.00
2018-04-22T08:09:37.385Z,7372.00
2018-04-22T08:10:37.344Z,7408.00
2018-04-22T08:11:38.122Z,7420.00
2018-04-22T08:12:37.263Z,7428.00
2018-04-22T08:13:38.127Z,7404.00
2018-04-22T08:14:37.183Z,7432.00
2018-04-22T08:15:37.142Z,7416.00
2018-04-22T08:16:37.108Z,7388.00
2018-04-22T08:17:37.066Z,7388.00
2018-04-22T08:18:37.023Z,7372.00
2018-04-22T08:19:36.984Z,7368.00
2018-04-22T08:20:36.946Z,7364.00
2018-04-22T08:21:37.625Z,7400.00
2018-04-22T08:22:36.868Z,7444.00
2018-04-22T08:23:36.826Z,7468.00
2018-04-22T08:24:36.788Z,7472.00
2018-04-22T08:25:36.747Z,7508.00
2018-04-22T08:26:36.707Z,7500.00
2018-04-22T08:27:37.636Z,7524.00
2018-04-22T08:28:36.629Z,7556.00
2018-04-22T08:29:36.589Z,7536.00
2018-04-22T08:30:37.131Z,7584.00
2018-04-22T08:31:36.513Z,7576.00
2018-04-22T08:32:36.471Z,7580.00
2018-04-22T08:33:36.431Z,7628.00
2018-04-22T08:34:36.392Z,7664.00
2018-04-22T08:35:36.352Z,7640.00
2018-04-22T08:36:37.142Z,7648.00
2018-04-22T08:37:36.280Z,7652.00
2018-04-22T08:38:36.233Z,7668.00
2018-04-22T08:39:36.192Z,7676.00
2018-04-22T08:40:36.153Z,7668.00
2018-04-22T08:41:36.113Z,7660.00
2018-04-22T08:42:36.635Z,7648.00
2018-04-22T08:43:36.034Z,7644.00
2018-04-22T08:44:35.995Z,7628.00
2018-04-22T08:45:36.637Z,7672.00
2018-04-22T08:46:35.914Z,7668.00
2018-04-22T08:47:36.633Z,7692.00
2018-04-22T08:48:36.636Z,7712.00
2018-04-22T08:49:36.634Z,7740.00
2018-04-22T08:50:35.784Z,7736.00
2018-04-22T08:51:35.723Z,7692.00
2018-04-22T08:52:35.681Z,7700.00
2018-04-22T08:53:35.642Z,7668.00
2018-04-22T08:54:35.598Z,7644.00
2018-04-22T08:55:35.560Z,7704.00
2018-04-22T08:56:35.524Z,7708.00
2018-04-22T08:57:35.498Z,7716.00
2018-04-22T08:58:35.450Z,7748.00
2018-04-22T08:59:35.409Z,7756.00
2018-04-22T09:00:35.365Z,7760.00
2018-04-22T09:01:35.326Z,7748.00
2018-04-22T09:02:35.286Z,7756.00
2018-04-22T09:03:35.247Z,7776.00
2018-04-22T09:04:35.208Z,7784.00
2018-04-22T09:05:35.172Z,7780.00
2018-04-22T09:06:35.129Z,7788.00
2018-04-22T09:07:35.094Z,7848.00
2018-04-22T09:08:35.047Z,7840.00
2018-04-22T09:09:35.012Z,7816.00
2018-04-22T09:10:34.971Z,7800.00
2018-04-22T09:11:34.930Z,7788.00
2018-04-22T09:12:34.893Z,7812.00
2018-04-22T09:13:34.856Z,7792.00
2018-04-22T09:14:35.640Z,7860.00
2018-04-22T09:15:35.643Z,7844.00
2018-04-22T09:16:34.737Z,7844.00
2018-04-22T09:17:34.701Z,7816.00
2018-04-22T09:18:34.658Z,7808.00
2018-04-22T09:19:34.621Z,7804.00
2018-04-22T09:20:34.583Z,7772.00
2018-04-22T09:21:34.542Z,7776.00
2018-04-22T09:22:34.502Z,7804.00
2018-04-22T09:23:34.465Z,7808.00
2018-04-22T09:24:35.143Z,7796.00
2018-04-22T09:25:34.391Z,7780.00
2018-04-22T09:26:34.349Z,7780.00
2018-04-22T09:27:34.314Z,7792.00
2018-04-22T09:28:34.277Z,7796.00
2018-04-22T09:29:34.231Z,7768.00
2018-04-22T09:30:34.192Z,7784.00
2018-04-22T09:31:34.159Z,7812.00
2018-04-22T09:32:34.122Z,7828.00
2018-04-22T09:33:34.647Z,7840.00
2018-04-22T09:34:34.039Z,7840.00
2018-04-22T09:35:34.000Z,7836.00
2018-04-22T09:36:33.964Z,7856.00
2018-04-22T09:37:33.928Z,7872.00
2018-04-22T09:38:33.886Z,7876.00
2018-04-22T09:39:33.849Z,7872.00
2018-04-22T09:40:33.815Z,7876.00
2018-04-22T09:41:34.651Z,7892.00
2018-04-22T09:42:33.735Z,7872.00
2018-04-22T09:43:33.693Z,7884.00
2018-04-22T09:44:33.662Z,7860.00
2018-04-22T09:45:33.618Z,7832.00
2018-04-22T09:46:34.159Z,7872.00
2018-04-22T09:47:33.545Z,7872.00
2018-04-22T09:48:33.503Z,7884.00
2018-04-22T09:49:34.153Z,7892.00
2018-04-22T09:50:33.429Z,7884.00
2018-04-22T09:51:33.387Z,7876.00
2018-04-22T09:52:33.351Z,7888.00
2018-04-22T09:53:33.312Z,7896.00
2018-04-22T09:54:33.284Z,7860.00
2018-04-22T09:55:33.235Z,7880.00
2018-04-22T09:56:33.201Z,7860.00
2018-04-22T09:57:33.161Z,7912.00
2018-04-22T09:58:33.122Z,7936.00
2018-04-22T09:59:33.082Z,7944.00
2018-04-22T10:00:33.046Z,7948.00
2018-04-22T10:01:33.009Z,7944.00
2018-04-22T10:02:32.970Z,7924.00
2018-04-22T10:03:32.932Z,7916.00
2018-04-22T10:04:33.659Z,7896.00
2018-04-22T10:05:33.655Z,7888.00
2018-04-22T10:06:32.817Z,7864.00
2018-04-22T10:07:32.779Z,7864.00
2018-04-22T10:08:32.744Z,7864.00
2018-04-22T10:09:32.704Z,7856.00
2018-04-22T10:10:32.667Z,7816.00
2018-04-22T10:11:32.629Z,7824.00
2018-04-22T10:12:32.591Z,7844.00
2018-04-22T10:13:33.171Z,7872.00
2018-04-22T10:14:32.515Z,7872.00
2018-04-22T10:15:33.164Z,7880.00
2018-04-22T10:16:32.481Z,7876.00
2018-04-22T10:17:32.408Z,7872.00
2018-04-22T10:18:32.363Z,7896.00
2018-04-22T10:19:32.335Z,7880.00
2018-04-22T10:20:32.288Z,7836.00
2018-04-22T10:21:32.248Z,7832.00
2018-04-22T10:22:32.211Z,7784.00
2018-04-22T10:23:32.175Z,7788.00
2018-04-22T10:24:32.145Z,7816.00
2018-04-22T10:25:32.099Z,7688.00
2018-04-22T10:26:32.062Z,7756.00
2018-04-22T10:27:32.662Z,7884.00
2018-04-22T10:28:31.988Z,7876.00
2018-04-22T10:29:31.951Z,7872.00
2018-04-22T10:30:31.914Z,7840.00
2018-04-22T10:31:32.665Z,7828.00
2018-04-22T10:32:33.664Z,7812.00
2018-04-22T10:33:31.800Z,7796.00
2018-04-22T10:34:31.765Z,7776.00
2018-04-22T10:35:31.724Z,7760.00
2018-04-22T10:36:31.689Z,7748.00
2018-04-22T10:37:32.671Z,7732.00
2018-04-22T10:38:32.239Z,7744.00
2018-04-22T10:39:31.575Z,7716.00
2018-04-22T10:40:31.540Z,7708.00
2018-04-22T10:41:32.168Z,7716.00
2018-04-22T10:42:31.467Z,7688.00
2018-04-22T10:43:31.433Z,7652.00
2018-04-22T10:44:31.407Z,7572.00
2018-04-22T10:45:31.355Z,7552.00
2018-04-22T10:46:31.320Z,7516.00
2018-04-22T10:47:31.280Z,7500.00
2018-04-22T10:48:31.251Z,7516.00
2018-04-22T10:49:31.207Z,7564.00
2018-04-22T10:50:31.169Z,7560.00
2018-04-22T10:51:31.132Z,7640.00
2018-04-22T10:52:31.099Z,7640.00
2018-04-22T10:53:31.060Z,7640.00
2018-04-22T10:54:31.026Z,7620.00
2018-04-22T10:55:30.987Z,7592.00
2018-04-22T10:56:31.684Z,7596.00
2018-04-22T10:57:30.914Z,7632.00
2018-04-22T10:58:30.877Z,7636.00
2018-04-22T10:59:30.843Z,7620.00
2018-04-22T11:00:30.803Z,7608.00
2018-04-22T11:01:31.675Z,7592.00
2018-04-22T11:02:30.730Z,7600.00
2018-04-22T11:03:30.692Z,7592.00
2018-04-22T11:04:30.659Z,7564.00
2018-04-22T11:05:30.626Z,7576.00
2018-04-22T11:06:30.587Z,7584.00
2018-04-22T11:07:30.549Z,7584.00
2018-04-22T11:08:30.510Z,7588.00
2018-04-22T11:09:30.480Z,7596.00
2018-04-22T11:10:30.436Z,7572.00
2018-04-22T11:11:30.399Z,7544.00
2018-04-22T11:12:30.364Z,7516.00
2018-04-22T11:13:30.330Z,7496.00
2018-04-22T11:14:30.291Z,7472.00
2018-04-22T11:15:31.180Z,7456.00
2018-04-22T11:16:30.220Z,7416.00
2018-04-22T11:17:30.184Z,7316.00
2018-04-22T11:18:30.146Z,7296.00
2018-04-22T11:19:30.109Z,6544.00
2018-04-22T11:20:30.074Z,7460.00
2018-04-22T11:21:30.037Z,7476.00
2018-04-22T11:22:29.998Z,7524.00
2018-04-22T11:23:29.964Z,7432.00
2018-04-22T11:24:29.929Z,7404.00
2018-04-22T11:25:29.893Z,7404.00
2018-04-22T11:26:29.854Z,7288.00
2018-04-22T11:27:29.819Z,7324.00
2018-04-22T11:28:29.786Z,7384.00
2018-04-22T11:29:29.747Z,7484.00
2018-04-22T11:30:29.709Z,7284.00
2018-04-22T11:31:29.675Z,3692.00
2018-04-22T11:32:29.638Z,3600.00
2018-04-22T11:33:29.601Z,3608.00
2018-04-22T11:34:29.565Z,3664.00
2018-04-22T11:35:29.528Z,3764.00
2018-04-22T11:36:29.492Z,3996.00
2018-04-22T11:37:29.457Z,5040.00
2018-04-22T11:38:29.427Z,7552.00
2018-04-22T11:39:30.193Z,7476.00
2018-04-22T11:40:29.350Z,7676.00
2018-04-22T11:41:29.311Z,7700.00
2018-04-22T11:42:29.277Z,7720.00
2018-04-22T11:43:30.193Z,7700.00
2018-04-22T11:44:30.188Z,7716.00
2018-04-22T11:45:29.164Z,7500.00
2018-04-22T11:46:29.140Z,7640.00
2018-04-22T11:47:29.092Z,7620.00
2018-04-22T11:48:29.054Z,5584.00
2018-04-22T11:49:29.019Z,4228.00
2018-04-22T11:50:28.981Z,4236.00
2018-04-22T11:51:29.028Z,4624.00
2018-04-22T11:52:29.705Z,4696.00
2018-04-22T11:53:30.210Z,4640.00
2018-04-22T11:54:28.837Z,4752.00
2018-04-22T11:55:28.799Z,7816.00
2018-04-22T11:56:28.763Z,8044.00
2018-04-22T11:57:28.727Z,8072.00
2018-04-22T11:58:28.690Z,8092.00
2018-04-22T11:59:29.195Z,8120.00
2018-04-22T12:00:28.620Z,8080.00
2018-04-22T12:01:28.581Z,8244.00
2018-04-22T12:02:28.547Z,8356.00
2018-04-22T12:03:28.507Z,8404.00
2018-04-22T12:04:28.473Z,8588.00
2018-04-22T12:05:28.437Z,7916.00
2018-04-22T12:06:28.445Z,5204.00
2018-04-22T12:07:29.202Z,5232.00
2018-04-22T12:08:28.323Z,8764.00
2018-04-22T12:09:28.291Z,6528.00
2018-04-22T12:10:29.201Z,8632.00
2018-04-22T12:11:29.198Z,8624.00
2018-04-22T12:12:28.181Z,8520.00
2018-04-22T12:13:28.700Z,8376.00
2018-04-22T12:14:28.107Z,8252.00
2018-04-22T12:15:28.702Z,4948.00
2018-04-22T12:16:28.035Z,5012.00
2018-04-22T12:17:28.002Z,8016.00
2018-04-22T12:18:27.963Z,8176.00
2018-04-22T12:19:27.928Z,8160.00
2018-04-22T12:20:27.915Z,8180.00
2018-04-22T12:21:27.854Z,4712.00
2018-04-22T12:22:27.823Z,7748.00
2018-04-22T12:23:27.781Z,7680.00
2018-04-22T12:24:27.745Z,4568.00
2018-04-22T12:25:27.710Z,4536.00
2018-04-22T12:26:27.672Z,4544.00
2018-04-22T12:27:27.634Z,4528.00
2018-04-22T12:28:27.599Z,4572.00
2018-04-22T12:29:28.222Z,4660.00